Time;durP1;ratioP1;P1;durP2;ratioP2;P2;SDS_P1;SDS_P2;PMS_P1;PMS_P2;Temp;Humidity;BMP_temperature;BMP_pressure;BME280_temperature;BME280_humidity;BME280_pressure;Samples;Min_cycle;Max_cycle;Signal;HPM_P1;HPM_P2
2021/11/12 00:14:49;;;;;;;10.00;6.28;;;3.20;99.90;;;;;;5017820;28;20030;-81
2021/11/12 00:17:19;;;;;;;10.40;6.32;;;3.30;99.90;;;;;;5001171;28;20045;-81
2021/11/12 00:19:47;;;;;;;9.23;5.55;;;3.20;99.90;;;;;;4995193;28;20027;-81
2021/11/12 00:22:13;;;;;;;7.60;5.30;;;3.20;99.90;;;;;;4999191;28;20121;-80
2021/11/12 00:24:39;;;;;;;9.60;5.88;;;3.20;99.90;;;;;;4998904;28;20031;-81
2021/11/12 00:27:06;;;;;;;;;;;3.20;99.90;;;;;;4999434;28;20011;-80
2021/11/12 00:29:38;;;;;;;11.88;5.90;;;3.20;99.90;;;;;;5016669;28;19901;-80
2021/11/12 00:32:20;;;;;;;9.30;5.57;;;3.20;99.90;;;;;;4998880;28;20026;-81
2021/11/12 00:34:54;;;;;;;12.23;6.25;;;3.20;99.90;;;;;;5016604;28;20036;-81
2021/11/12 00:37:45;;;;;;;11.52;6.85;;;3.20;99.90;;;;;;5016822;28;20042;-81
2021/11/12 00:40:23;;;;;;;8.70;5.60;;;3.10;99.90;;;;;;4999420;28;20046;-79
2021/11/12 00:45:21;;;;;;;9.65;5.72;;;3.10;99.90;;;;;;5017254;28;20042;-81
2021/11/12 00:55:22;;;;;;;15.63;7.45;;;3.10;99.90;;;;;;5016395;28;20026;-81
2021/11/12 00:57:49;;;;;;;12.77;7.18;;;3.00;99.90;;;;;;4999365;28;20033;-81
2021/11/12 01:00:15;;;;;;;11.10;6.30;;;3.10;99.90;;;;;;5015877;28;20019;-81
2021/11/12 01:02:42;;;;;;;14.77;6.50;;;3.10;99.90;;;;;;4999427;28;20033;-83
2021/11/12 01:05:09;;;;;;;12.50;7.28;;;3.40;99.90;;;;;;4999958;28;20018;-82
2021/11/12 01:07:37;;;;;;;10.80;7.55;;;3.10;99.90;;;;;;4999195;28;20018;-83
2021/11/12 01:10:06;;;;;;;11.23;6.70;;;3.20;99.90;;;;;;4982800;28;20053;-81
2021/11/12 01:12:35;;;;;;;12.60;7.50;;;3.20;99.90;;;;;;4998899;28;20037;-82
2021/11/12 01:15:03;;;;;;;15.90;7.95;;;3.20;99.90;;;;;;5014848;28;20022;-83
2021/11/12 01:17:30;;;;;;;11.93;7.40;;;3.30;99.90;;;;;;4999693;28;20034;-82
2021/11/12 01:19:56;;;;;;;12.63;7.80;;;3.20;99.90;;;;;;5015891;28;20030;-82
2021/11/12 01:22:22;;;;;;;12.13;7.28;;;3.10;99.90;;;;;;4999325;28;20061;-83
2021/11/12 01:24:49;;;;;;;;;;;3.10;99.90;;;;;;5016381;28;20046;-83
2021/11/12 01:27:15;;;;;;;13.27;8.18;;;2.90;99.90;;;;;;4998726;28;19906;-84
2021/11/12 01:29:42;;;;;;;14.57;8.88;;;2.80;99.90;;;;;;5015605;28;20049;-84
2021/11/12 01:32:24;;;;;;;14.98;9.25;;;2.90;99.90;;;;;;4998345;28;20021;-81
2021/11/12 01:34:53;;;;;;;13.57;8.25;;;2.60;99.90;;;;;;4999092;28;20054;-81
2021/11/12 01:37:21;;;;;;;19.17;9.50;;;2.60;99.90;;;;;;5016259;28;20050;-81
2021/11/12 01:39:53;;;;;;;40.35;14.35;;;2.70;99.90;;;;;;4999808;28;20011;-82
2021/11/12 01:42:24;;;;;;;70.82;23.58;;;2.80;99.90;;;;;;5015915;28;20033;-82
2021/11/12 01:44:58;;;;;;;59.72;19.65;;;2.60;99.90;;;;;;4999162;28;20053;-81
2021/11/12 01:47:37;;;;;;;50.85;17.23;;;2.70;99.90;;;;;;4997660;28;20022;-83
2021/11/12 01:50:09;;;;;;;27.60;11.90;;;2.70;99.90;;;;;;4997365;28;20038;-83
2021/11/12 01:52:40;;;;;;;25.77;11.90;;;2.70;99.90;;;;;;5012358;28;20026;-84
2021/11/12 01:55:14;;;;;;;21.35;9.70;;;3.00;99.90;;;;;;4998588;28;20081;-84
2021/11/12 02:00:22;;;;;;;33.83;13.20;;;2.70;99.90;;;;;;5015030;28;20006;-81
2021/11/12 02:02:49;;;;;;;23.90;11.45;;;2.60;99.90;;;;;;5015559;28;20030;-80
2021/11/12 02:05:16;;;;;;;15.02;8.57;;;2.50;99.90;;;;;;4997997;28;20022;-80
2021/11/12 02:07:42;;;;;;;12.50;7.28;;;2.70;99.90;;;;;;4998171;28;20439;-80
2021/11/12 02:10:12;;;;;;;16.42;7.38;;;2.70;99.90;;;;;;5015272;28;20065;-81
2021/11/12 02:13:03;;;;;;;11.25;6.70;;;2.70;99.90;;;;;;5019741;28;20060;-82
2021/11/12 02:15:29;;;;;;;14.80;7.32;;;2.80;99.90;;;;;;5020087;28;20026;-80
2021/11/12 02:18:02;;;;;;;16.35;9.00;;;2.70;99.90;;;;;;5019614;28;20067;-81
2021/11/12 02:21:23;;;;;;;15.38;8.18;;;2.70;99.90;;;;;;5002414;28;20030;-83
2021/11/12 02:26:54;;;;;;;15.98;8.77;;;2.50;99.90;;;;;;5006620;28;20065;-83
2021/11/12 02:29:34;;;;;;;16.67;8.90;;;2.50;99.90;;;;;;5002970;28;20180;-83
2021/11/12 02:32:01;;;;;;;17.48;10.05;;;2.60;99.90;;;;;;5001749;28;20021;-82
2021/11/12 02:34:29;;;;;;;15.52;9.70;;;2.40;99.90;;;;;;5001411;28;20022;-82
2021/11/12 02:36:55;;;;;;;21.30;10.98;;;2.50;99.90;;;;;;5000896;28;20063;-83
2021/11/12 02:39:22;;;;;;;18.50;9.35;;;2.50;99.90;;;;;;5016962;28;20026;-82
2021/11/12 02:41:51;;;;;;;16.52;9.68;;;2.50;99.90;;;;;;5018001;28;20078;-83
2021/11/12 02:44:20;;;;;;;16.30;9.02;;;2.50;99.90;;;;;;5001171;28;20041;-83
2021/11/12 02:46:46;;;;;;;18.70;10.13;;;2.50;99.90;;;;;;5017460;28;20013;-83
2021/11/12 02:49:13;;;;;;;;;;;2.40;99.90;;;;;;5017451;28;20062;-82
2021/11/12 02:51:39;;;;;;;15.75;8.50;;;2.40;99.90;;;;;;5016239;28;20270;-83
2021/11/12 02:54:10;;;;;;;;;;;2.50;99.90;;;;;;5000955;28;20054;-83
2021/11/12 02:56:36;;;;;;;25.13;12.20;;;2.50;99.90;;;;;;5000598;28;19906;-82
2021/11/12 02:59:12;;;;;;;;;;;2.60;99.90;;;;;;5000628;28;20009;-83
2021/11/12 03:01:46;;;;;;;22.40;9.93;;;2.90;99.90;;;;;;4999924;28;19905;-83
2021/11/12 03:04:16;;;;;;;16.48;7.53;;;2.90;99.90;;;;;;5000276;28;20054;-83
2021/11/12 03:06:43;;;;;;;18.30;7.85;;;2.90;99.90;;;;;;4999732;28;20045;-83
2021/11/12 03:09:11;;;;;;;16.48;8.50;;;3.10;99.90;;;;;;5000443;28;20050;-82
2021/11/12 03:11:39;;;;;;;18.25;8.95;;;3.00;99.90;;;;;;5001741;28;20021;-81
2021/11/12 03:14:06;;;;;;;21.55;9.93;;;3.30;99.90;;;;;;5018437;28;20036;-81
2021/11/12 03:16:34;;;;;;;25.80;11.93;;;3.00;99.90;;;;;;4999915;28;20073;-83
2021/11/12 03:19:02;;;;;;;32.53;13.63;;;3.00;99.90;;;;;;5000978;28;20018;-82
2021/11/12 03:21:28;;;;;;;29.33;12.75;;;3.10;99.90;;;;;;5017586;28;20013;-81
2021/11/12 03:23:59;;;;;;;23.13;10.30;;;3.20;99.90;;;;;;5018074;28;20065;-82
2021/11/12 04:05:36;;;;;;;25.70;13.15;;;2.80;99.90;;;;;;4997630;28;20038;-83
2021/11/12 04:30:52;;;;;;;42.83;23.38;;;2.30;99.90;;;;;;4991182;28;20077;-83
2021/11/12 04:49:57;;;;;;;21.85;11.23;;;2.20;99.90;;;;;;4977671;29;20050;-83
2021/11/12 05:33:42;;;;;;;36.65;17.30;;;2.10;99.90;;;;;;5014492;28;20158;-82
2021/11/12 05:44:31;;;;;;;21.55;10.30;;;2.20;99.90;;;;;;5000085;28;20061;-82
2021/11/12 05:55:09;;;;;;;24.48;14.85;;;2.30;99.90;;;;;;4971365;28;20030;-82
2021/11/12 05:57:38;;;;;;;33.33;17.25;;;2.30;99.90;;;;;;4998253;28;20035;-83
2021/11/12 06:00:13;;;;;;;38.35;20.55;;;2.30;99.90;;;;;;5014252;28;20088;-82
2021/11/12 06:02:40;;;;;;;38.40;19.42;;;2.20;99.90;;;;;;4983249;28;20031;-82
2021/11/12 06:05:07;;;;;;;34.25;17.98;;;2.30;99.90;;;;;;5014277;28;20034;-83
2021/11/12 06:07:37;;;;;;;37.05;19.90;;;2.30;99.90;;;;;;5014875;28;20038;-82
2021/11/12 06:10:19;;;;;;;43.05;19.27;;;2.30;99.90;;;;;;5015916;28;20038;-83
2021/11/12 06:12:47;;;;;;;36.92;17.40;;;2.50;99.90;;;;;;4997462;28;20046;-82
2021/11/12 06:15:16;;;;;;;36.05;16.13;;;2.30;99.90;;;;;;4997738;28;20483;-82
2021/11/12 06:17:49;;;;;;;44.15;19.48;;;3.00;99.90;;;;;;5015423;28;20094;-81
2021/11/12 06:20:16;;;;;;;49.05;19.35;;;2.50;99.90;;;;;;4999042;28;20033;-82
2021/11/12 06:22:42;;;;;;;43.28;18.65;;;2.60;99.90;;;;;;4998424;28;20010;-83
2021/11/12 06:25:09;;;;;;;;;;;2.80;99.90;;;;;;4997850;28;20046;-83
2021/11/12 06:27:35;;;;;;;53.33;23.85;;;3.20;99.90;;;;;;4997300;28;19894;-82
2021/11/12 06:30:05;;;;;;;;;;;3.70;99.90;;;;;;5015403;28;20038;-81
2021/11/12 06:32:38;;;;;;;64.57;25.25;;;4.10;99.90;;;;;;4984919;28;19914;-82
2021/11/12 06:35:37;;;;;;;57.25;23.05;;;4.70;99.90;;;;;;5017082;28;20090;-82
2021/11/12 06:38:29;;;;;;;44.55;18.92;;;5.20;99.90;;;;;;5008306;28;20038;-82
2021/11/12 06:50:43;;;;;;;41.45;19.95;;;7.30;99.90;;;;;;5018264;28;20073;-83
2021/11/12 06:53:49;;;;;;;40.40;20.17;;;7.60;99.90;;;;;;4998411;28;20018;-83
2021/11/12 06:57:11;;;;;;;59.05;30.13;;;8.20;99.90;;;;;;4960675;28;20043;-83
2021/11/12 07:07:20;;;;;;;41.97;25.90;;;8.50;99.90;;;;;;4926149;29;20028;-83
2021/11/12 07:10:24;;;;;;;44.15;23.67;;;8.70;99.90;;;;;;4876588;29;20089;-83
2021/11/12 08:46:29;;;;;;;6.72;4.82;;;16.50;65.60;;;;;;5004919;23;20050;-90
2021/11/12 08:51:26;;;;;;;5.65;4.10;;;16.80;63.30;;;;;;4993829;28;20037;-90
2021/11/12 08:53:52;;;;;;;6.93;5.28;;;17.10;60.80;;;;;;4993617;28;20361;-90
2021/11/12 08:56:18;;;;;;;7.65;5.47;;;17.20;60.50;;;;;;4976038;28;20041;-91
2021/11/12 08:58:46;;;;;;;6.38;4.50;;;17.20;60.30;;;;;;4975170;28;20022;-91
2021/11/12 09:01:13;;;;;;;6.75;4.75;;;16.90;60.40;;;;;;4993061;28;20026;-90
2021/11/12 09:03:40;;;;;;;6.25;4.55;;;16.20;62.20;;;;;;4976517;28;20022;-90
2021/11/12 17:45:21;;;;;;;29.25;12.50;;;6.00;99.90;;;;;;5168480;27;20014;-80
2021/11/12 17:47:48;;;;;;;24.48;14.55;;;5.90;99.90;;;;;;5161499;27;20029;-80
2021/11/12 18:03:31;;;;;;;36.47;21.33;;;5.70;99.90;;;;;;5168631;27;20038;-80
2021/11/12 18:06:12;;;;;;;30.75;17.60;;;5.70;99.90;;;;;;5162471;27;20027;-80
2021/11/12 18:09:09;;;;;;;27.75;16.65;;;5.70;99.90;;;;;;5163831;27;20468;-80
2021/11/12 18:12:21;;;;;;;23.38;14.35;;;5.70;99.90;;;;;;5160550;27;20026;-80
2021/11/12 21:48:19;;;;;;;46.78;26.25;;;3.10;99.90;;;;;;5135859;28;20024;-82
2021/11/12 21:50:47;;;;;;;46.47;24.10;;;3.20;99.90;;;;;;5152581;28;20016;-83
2021/11/12 21:53:13;;;;;;;69.03;31.67;;;3.10;99.90;;;;;;5151965;28;20027;-83
2021/11/12 21:55:39;;;;;;;;;;;3.00;99.90;;;;;;5134444;28;20039;-81
2021/11/12 21:58:04;;;;;;;66.97;34.72;;;3.00;99.90;;;;;;5133733;28;19903;-83
2021/11/12 22:00:31;;;;;;;;;;;3.00;99.90;;;;;;5133429;28;20028;-82
2021/11/12 22:02:57;;;;;;;87.03;38.53;;;3.10;99.90;;;;;;5134684;28;19904;-83
2021/11/12 22:05:23;;;;;;;94.20;43.35;;;3.00;99.90;;;;;;5150859;28;20020;-83
2021/11/12 22:07:49;;;;;;;;;;;3.00;99.90;;;;;;5151670;28;20047;-83
2021/11/12 22:10:16;;;;;;;95.13;46.63;;;2.90;99.90;;;;;;5134559;28;19965;-83
2021/11/12 22:12:42;;;;;;;93.80;48.03;;;2.90;99.90;;;;;;5149706;28;20030;-82
2021/11/12 22:15:09;;;;;;;83.50;41.75;;;2.90;99.90;;;;;;5145270;28;20580;-79
2021/11/12 22:17:35;;;;;;;53.40;27.17;;;2.90;99.90;;;;;;5146515;28;20024;-81
2021/11/12 22:20:04;;;;;;;32.63;15.05;;;3.10;99.90;;;;;;5145522;28;20165;-80
2021/11/12 22:22:31;;;;;;;36.95;19.30;;;3.20;99.90;;;;;;5148431;27;20069;-81
2021/11/12 22:24:58;;;;;;;29.38;14.95;;;3.50;99.90;;;;;;5133686;27;20059;-81
2021/11/12 22:27:24;;;;;;;35.63;17.50;;;3.50;99.90;;;;;;5132811;28;20016;-79
2021/11/12 22:29:50;;;;;;;;;;;3.60;99.90;;;;;;5131702;28;20041;-82
2021/11/12 22:32:16;;;;;;;31.98;17.05;;;3.60;99.90;;;;;;5147008;27;19910;-82
2021/11/12 22:34:42;;;;;;;37.47;19.80;;;3.70;99.90;;;;;;5131230;27;20047;-82
2021/11/12 22:37:07;;;;;;;;;;;3.60;99.90;;;;;;5136136;28;20042;-81
2021/11/12 22:39:33;;;;;;;41.83;21.17;;;3.40;99.90;;;;;;5151872;27;19995;-81
2021/11/12 22:41:59;;;;;;;;;;;3.30;99.90;;;;;;5136376;27;20030;-82
2021/11/12 22:44:25;;;;;;;40.60;22.35;;;3.30;99.90;;;;;;5136988;28;19946;-82
2021/11/12 22:46:50;;;;;;;;;;;3.20;99.90;;;;;;5151402;27;20020;-81
2021/11/12 22:49:16;;;;;;;41.58;21.75;;;3.30;99.90;;;;;;5135947;28;19909;-81
2021/11/12 22:51:42;;;;;;;;;;;3.20;99.90;;;;;;5135811;28;20023;-82
2021/11/12 22:54:08;;;;;;;40.40;21.63;;;3.30;99.90;;;;;;5152672;27;19935;-80
2021/11/12 22:56:35;;;;;;;;;;;3.10;99.90;;;;;;5136073;28;20035;-81
2021/11/12 22:59:01;;;;;;;37.13;19.87;;;3.10;99.90;;;;;;5136549;28;19911;-81
2021/11/12 23:01:28;;;;;;;;;;;3.00;99.90;;;;;;5137310;28;20011;-82
2021/11/12 23:03:54;;;;;;;34.03;17.42;;;3.00;99.90;;;;;;5152560;27;19904;-83
2021/11/12 23:06:22;;;;;;;34.00;18.10;;;3.00;99.90;;;;;;5153064;27;20031;-82
2021/11/12 23:08:48;;;;;;;29.40;16.92;;;3.00;99.90;;;;;;5135743;28;20024;-84
2021/11/12 23:11:14;;;;;;;35.65;17.23;;;3.10;99.90;;;;;;5153705;27;20008;-83
2021/11/12 23:13:42;;;;;;;28.98;14.73;;;2.70;99.90;;;;;;5137326;28;20020;-84
2021/11/12 23:16:09;;;;;;;28.50;14.05;;;3.00;99.90;;;;;;5137341;28;20032;-84
2021/11/12 23:18:36;;;;;;;26.58;11.32;;;2.90;99.90;;;;;;5153380;27;20042;-83
2021/11/12 23:21:03;;;;;;;27.15;11.68;;;3.00;99.90;;;;;;5136601;28;20051;-83
2021/11/12 23:23:33;;;;;;;14.38;6.63;;;3.10;99.90;;;;;;5153355;27;20091;-83
2021/11/12 23:25:59;;;;;;;15.77;7.43;;;3.30;99.90;;;;;;5154615;27;20020;-83
2021/11/12 23:28:25;;;;;;;14.20;6.22;;;3.30;99.90;;;;;;5139073;28;20024;-84
2021/11/12 23:30:51;;;;;;;;;;;3.40;99.90;;;;;;5140079;28;20054;-84
2021/11/12 23:33:17;;;;;;;9.35;5.22;;;3.50;99.90;;;;;;5140786;28;19976;-85
2021/11/12 23:35:44;;;;;;;11.90;6.00;;;3.50;99.90;;;;;;5157396;27;20028;-85
2021/11/12 23:38:10;;;;;;;11.82;6.18;;;3.60;99.90;;;;;;5140343;28;20011;-84
2021/11/12 23:40:36;;;;;;;17.35;8.70;;;3.50;99.90;;;;;;5153934;27;20027;-84
2021/11/12 23:43:03;;;;;;;20.25;10.07;;;3.40;99.90;;;;;;5151341;27;20023;-81
2021/11/12 23:45:29;;;;;;;19.38;9.98;;;3.50;99.90;;;;;;5151062;27;20032;-82
2021/11/12 23:47:55;;;;;;;25.75;10.48;;;3.30;99.90;;;;;;5150298;27;20073;-81
2021/11/12 23:50:23;;;;;;;22.35;10.68;;;3.30;99.90;;;;;;5133498;28;20024;-80
2021/11/12 23:52:49;;;;;;;23.27;10.07;;;3.20;99.90;;;;;;5150773;27;20032;-80
2021/11/12 23:55:16;;;;;;;15.60;9.20;;;3.20;99.90;;;;;;5150501;27;20038;-82
2021/11/12 23:57:43;;;;;;;16.77;8.90;;;3.30;99.90;;;;;;5150455;27;20027;-82
